Time;durP1;ratioP1;P1;durP2;ratioP2;P2;SDS_P1;SDS_P2;PMS_P1;PMS_P2;Temp;Humidity;BMP_temperature;BMP_pressure;BME280_temperature;BME280_humidity;BME280_pressure;Samples;Min_cycle;Max_cycle;Signal;HPM_P1;HPM_P2
2023/10/07 00:00:47;;;;;;;6.15;4.22;;;;;;;24.48;44.33;100183.50;5092559;28;20073;-77
2023/10/07 00:03:15;;;;;;;6.70;4.10;;;;;;;24.47;44.28;100187.13;5071734;28;20381;-77
2023/10/07 00:05:42;;;;;;;7.47;4.38;;;;;;;24.44;44.36;100182.00;5072360;28;20104;-76
2023/10/07 00:08:12;;;;;;;7.63;4.60;;;;;;;24.43;44.25;100177.59;5072209;28;20027;-78
2023/10/07 00:10:41;;;;;;;7.65;4.50;;;;;;;24.41;44.41;100175.06;5072057;28;20439;-78
2023/10/07 00:13:10;;;;;;;6.45;4.18;;;;;;;24.40;44.50;100174.19;5091088;28;20034;-77
2023/10/07 00:15:46;;;;;;;6.72;4.28;;;;;;;24.42;44.35;100173.22;5092145;28;20459;-78
2023/10/07 00:18:13;;;;;;;5.88;4.05;;;;;;;24.40;44.32;100176.84;5092687;28;20081;-76
2023/10/07 00:20:49;;;;;;;6.70;4.15;;;;;;;24.40;44.33;100174.19;5098926;28;20434;-77
2023/10/07 00:23:22;;;;;;;6.50;4.18;;;;;;;24.38;44.49;100173.44;5098961;28;20505;-78
2023/10/07 00:25:51;;;;;;;6.57;4.00;;;;;;;24.37;44.32;100171.72;5098696;28;20484;-78
2023/10/07 00:28:19;;;;;;;7.18;4.15;;;;;;;24.37;44.59;100179.72;5097670;28;20484;-77
2023/10/07 00:30:49;;;;;;;6.65;3.97;;;;;;;24.36;44.38;100169.16;5098481;28;20024;-78
2023/10/07 00:33:19;;;;;;;6.53;3.80;;;;;;;24.35;44.27;100173.63;5098943;28;20039;-78
2023/10/07 00:35:49;;;;;;;6.30;3.90;;;;;;;24.35;44.50;100172.78;5098745;28;20077;-77
2023/10/07 00:38:15;;;;;;;6.00;3.90;;;;;;;24.35;44.42;100172.78;5098693;28;20117;-78
2023/10/07 00:40:54;;;;;;;7.05;4.22;;;;;;;24.34;44.58;100176.38;5098912;28;20104;-77
2023/10/07 00:43:27;;;;;;;6.22;4.05;;;;;;;24.34;44.68;100171.91;5098638;28;20016;-77
2023/10/07 00:46:06;;;;;;;6.20;3.95;;;;;;;24.32;44.68;100168.50;5098516;28;20019;-78
2023/10/07 00:48:56;;;;;;;7.63;4.10;;;;;;;24.32;44.40;100168.50;5098949;28;20052;-77
2023/10/07 00:51:33;;;;;;;6.00;4.00;;;;;;;24.31;44.80;100165.94;5098871;28;20016;-77
2023/10/07 00:56:51;;;;;;;7.00;4.03;;;;;;;24.29;44.29;100151.81;5098653;28;20042;-77
2023/10/07 00:59:24;;;;;;;7.00;4.05;;;;;;;24.30;44.34;100154.41;5098268;28;20036;-76
2023/10/07 01:01:51;;;;;;;6.65;4.30;;;;;;;24.29;44.39;100157.16;5079916;28;20039;-77
2023/10/07 01:04:17;;;;;;;6.85;4.00;;;;;;;24.27;44.13;100155.44;5098445;28;20070;-78
2023/10/07 01:06:45;;;;;;;6.65;4.05;;;;;;;24.25;44.60;100145.84;5098461;28;20449;-78
2023/10/07 01:09:14;;;;;;;7.20;4.40;;;;;;;24.23;44.25;100147.75;5098517;28;20048;-77
2023/10/07 01:11:40;;;;;;;6.55;4.18;;;;;;;24.23;44.25;100147.75;5098596;28;20036;-77
2023/10/07 01:14:10;;;;;;;6.70;4.10;;;;;;;24.22;44.42;100146.03;5096912;28;20035;-77
2023/10/07 01:16:42;;;;;;;6.43;4.03;;;;;;;24.22;44.48;100146.03;5098299;28;20116;-78
2023/10/07 01:27:08;;;;;;;6.05;3.97;;;;;;;24.17;44.77;100138.34;5098173;28;20024;-77
2023/10/07 01:29:34;;;;;;;6.80;3.75;;;;;;;24.18;44.48;100139.19;5096619;28;20032;-78
2023/10/07 01:32:03;;;;;;;6.38;3.67;;;;;;;24.17;44.43;100133.00;5094360;28;20024;-76
2023/10/07 01:34:30;;;;;;;6.15;3.47;;;;;;;24.16;44.39;100131.28;5094943;28;20024;-78
2023/10/07 01:37:02;;;;;;;6.65;4.25;;;;;;;24.15;44.29;100128.72;5095237;28;20082;-77
2023/10/07 01:39:30;;;;;;;6.13;3.80;;;;;;;24.14;44.39;100135.88;5094899;28;20024;-77
2023/10/07 01:42:01;;;;;;;5.80;3.65;;;;;;;24.12;44.39;100130.63;5095007;28;20052;-78
2023/10/07 01:44:28;;;;;;;6.18;3.65;;;;;;;24.12;44.44;100137.78;5094784;28;20563;-78
2023/10/07 01:46:56;;;;;;;5.10;3.50;;;;;;;24.10;44.17;100127.22;5095147;28;20039;-78
2023/10/07 01:49:22;;;;;;;6.03;3.88;;;;;;;24.09;44.42;100130.84;5095069;28;20085;-78
2023/10/07 01:51:52;;;;;;;5.95;3.58;;;;;;;24.08;44.48;100129.13;5094845;28;20035;-77
2023/10/07 01:54:19;;;;;;;6.75;4.10;;;;;;;24.08;44.43;100123.78;5093385;28;20100;-76
2023/10/07 01:56:47;;;;;;;6.25;3.90;;;;;;;24.05;44.37;100123.06;5094761;28;20400;-77
2023/10/07 02:01:50;;;;;;;7.53;4.38;;;;;;;24.03;44.30;100119.66;5094371;28;20024;-78
2023/10/07 02:04:26;;;;;;;6.63;4.00;;;;;;;24.02;44.21;100118.78;5094391;28;20389;-77
2023/10/07 02:06:51;;;;;;;6.57;3.92;;;;;;;23.99;44.45;100124.34;5094420;28;20035;-78
2023/10/07 02:09:23;;;;;;;5.55;3.60;;;;;;;23.99;44.41;100119.00;5094541;28;20036;-77
2023/10/07 02:11:53;;;;;;;6.50;3.65;;;;;;;23.98;44.46;100122.63;5093300;28;20024;-78
2023/10/07 02:14:24;;;;;;;6.40;4.10;;;;;;;23.95;44.06;100117.47;5094420;28;20028;-78
2023/10/07 02:16:52;;;;;;;5.78;3.65;;;;;;;23.95;44.35;100122.81;5094425;28;20487;-78
2023/10/07 02:22:22;;;;;;;6.68;4.13;;;;;;;23.94;44.26;100118.44;5089342;28;20419;-78
2023/10/07 02:24:55;;;;;;;6.57;3.67;;;;;;;23.92;44.33;100123.03;5094161;28;20032;-78
2023/10/07 02:27:25;;;;;;;7.45;4.15;;;;;;;23.91;44.43;100111.50;5093932;28;20023;-78
2023/10/07 02:29:51;;;;;;;5.93;3.50;;;;;;;23.91;44.44;100110.66;5094212;28;20020;-77
2023/10/07 02:32:17;;;;;;;5.88;3.67;;;;;;;23.90;44.50;100114.25;5092873;28;20077;-78
2023/10/07 02:34:53;;;;;;;7.28;3.80;;;;;;;23.89;44.18;100112.53;5094018;28;20028;-77
2023/10/07 02:37:18;;;;;;;6.13;3.85;;;;;;;23.87;44.22;100121.50;5094089;28;20055;-78
2023/10/07 02:39:47;;;;;;;5.90;3.53;;;;;;;23.87;44.38;100105.50;5093940;28;20472;-77
2023/10/07 02:42:21;;;;;;;6.47;4.05;;;;;;;23.89;44.48;100115.19;5093156;28;20035;-78
2023/10/07 02:45:01;;;;;;;6.45;3.75;;;;;;;23.89;44.59;100109.88;5094140;28;20028;-77
2023/10/07 02:47:32;;;;;;;6.13;3.85;;;;;;;23.90;44.63;100108.91;5093885;28;20419;-77
2023/10/07 02:50:02;;;;;;;6.40;3.92;;;;;;;23.88;44.03;100109.03;5093859;28;20028;-79
2023/10/07 02:52:34;;;;;;;6.53;3.75;;;;;;;23.89;44.50;100105.41;5093442;28;20047;-77
2023/10/07 02:57:45;;;;;;;6.05;3.45;;;;;;;23.85;44.46;100107.41;5093372;28;20028;-77
2023/10/07 03:00:17;;;;;;;6.43;3.60;;;;;;;23.86;44.43;100109.13;5093795;28;20366;-77
2023/10/07 03:02:49;;;;;;;5.75;3.45;;;;;;;23.82;44.43;100107.59;5093470;28;20047;-77
2023/10/07 03:05:27;;;;;;;6.00;3.63;;;;;;;23.84;44.54;100115.50;5093489;28;20055;-77
2023/10/07 03:08:01;;;;;;;6.07;3.45;;;;;;;23.83;44.66;100103.97;5093455;28;20028;-77
2023/10/07 03:10:43;;;;;;;7.40;3.80;;;;;;;23.82;44.58;100107.59;5093302;28;20392;-78
2023/10/07 03:13:09;;;;;;;6.25;3.50;;;;;;;23.80;44.73;100104.19;5092273;28;20036;-77
2023/10/07 03:18:00;;;;;;;6.40;3.65;;;;;;;23.79;44.71;100107.81;5093402;28;20081;-77
2023/10/07 03:20:31;;;;;;;5.70;3.33;;;;;;;23.79;44.30;100107.81;5093359;28;20483;-77
2023/10/07 03:23:25;;;;;;;8.45;4.50;;;;;;;23.77;44.59;100104.34;5093265;28;20102;-78
2023/10/07 03:28:25;;;;;;;5.07;3.45;;;;;;;23.73;44.62;100102.88;5093114;28;20024;-78
2023/10/07 03:30:55;;;;;;;6.05;3.53;;;;;;;23.75;44.66;100111.59;5091804;28;20024;-77
2023/10/07 03:33:58;;;;;;;7.15;3.60;;;;;;;23.72;44.53;100102.00;5093061;28;20026;-78
2023/10/07 03:38:50;;;;;;;5.13;3.15;;;;;;;23.71;44.40;100102.09;5092434;28;20495;-77
2023/10/07 03:41:21;;;;;;;5.55;3.40;;;;;;;23.70;44.63;100108.38;5092920;28;20507;-77
2023/10/07 03:43:46;;;;;;;5.13;3.35;;;;;;;23.69;44.45;100109.31;5092703;28;20034;-77
2023/10/07 03:46:12;;;;;;;6.43;3.65;;;;;;;23.69;44.41;100112.00;5092698;28;20102;-78
2023/10/07 03:48:40;;;;;;;5.75;3.35;;;;;;;23.68;44.56;100105.78;5092529;28;20027;-78
2023/10/07 03:51:06;;;;;;;5.05;3.28;;;;;;;23.69;44.48;100104.00;5092483;28;20103;-78
2023/10/07 03:53:32;;;;;;;6.38;3.35;;;;;;;23.71;44.68;100099.41;5091953;28;20039;-78
2023/10/07 03:56:00;;;;;;;5.93;3.42;;;;;;;23.69;44.62;100104.00;5092582;28;20032;-78
2023/10/07 03:58:28;;;;;;;5.50;3.47;;;;;;;23.66;44.66;100106.84;5092599;28;20020;-78
2023/10/07 04:00:55;;;;;;;4.95;3.20;;;;;;;23.65;44.44;100106.00;5092759;28;20027;-78
2023/10/07 04:03:23;;;;;;;5.88;3.50;;;;;;;23.63;44.43;100109.72;5092490;28;20461;-78
2023/10/07 04:05:49;;;;;;;6.85;3.92;;;;;;;23.64;44.47;100108.75;5092595;28;20112;-77
2023/10/07 04:08:18;;;;;;;6.63;3.63;;;;;;;23.64;44.64;100111.41;5092470;28;20031;-78
2023/10/07 04:10:45;;;;;;;5.55;3.58;;;;;;;23.64;44.63;100108.75;5092433;28;20027;-79
2023/10/07 04:13:21;;;;;;;5.22;3.40;;;;;;;23.63;44.33;100113.22;5092094;28;20476;-78
2023/10/07 04:15:51;;;;;;;5.75;3.80;;;;;;;23.63;44.45;100115.03;5093063;28;20135;-77
2023/10/07 04:18:17;;;;;;;6.28;3.80;;;;;;;23.59;44.28;100117.88;5087361;28;20036;-78
2023/10/07 04:23:21;;;;;;;6.95;3.75;;;;;;;23.63;44.53;100112.38;5091893;28;20031;-77
2023/10/07 04:25:47;;;;;;;6.13;3.55;;;;;;;23.63;44.53;100112.38;5092493;28;20024;-78
2023/10/07 04:28:15;;;;;;;7.03;3.60;;;;;;;23.65;44.34;100099.81;5092385;28;20045;-77
2023/10/07 04:30:46;;;;;;;6.90;4.03;;;;;;;23.62;44.33;100100.84;5092181;28;20035;-79
2023/10/07 04:33:13;;;;;;;7.00;3.63;;;;;;;23.61;44.41;100104.47;5092214;28;20545;-78
2023/10/07 04:35:39;;;;;;;5.63;3.55;;;;;;;23.63;44.21;100104.38;5092107;28;20028;-77
2023/10/07 04:41:30;;;;;;;5.95;3.38;;;;;;;23.58;44.45;100110.84;5049468;28;20544;-78
2023/10/07 04:46:23;;;;;;;6.88;3.92;;;;;;;23.56;44.54;100111.88;5069803;28;20067;-76
2023/10/07 04:49:12;;;;;;;6.60;3.78;;;;;;;23.51;44.32;100119.31;5069633;28;20052;-78
2023/10/07 04:54:07;;;;;;;6.45;3.88;;;;;;;23.51;44.25;100120.16;5049749;28;20021;-78
2023/10/07 04:56:33;;;;;;;7.60;3.95;;;;;;;23.49;44.39;100122.09;5051945;28;20037;-76
2023/10/07 04:59:10;;;;;;;5.88;3.33;;;;;;;23.43;44.36;100111.78;5069655;28;20562;-78
2023/10/07 05:01:41;;;;;;;6.40;3.55;;;;;;;23.43;44.37;100117.09;5056413;28;20067;-77
2023/10/07 05:04:15;;;;;;;5.45;3.38;;;;;;;23.44;44.26;100118.84;5050749;28;20516;-77
2023/10/07 05:06:42;;;;;;;5.80;3.38;;;;;;;23.40;44.44;100117.31;5071442;28;20488;-78
2023/10/07 05:09:09;;;;;;;5.50;3.45;;;;;;;23.43;44.38;100122.44;5073215;28;20396;-77
2023/10/07 05:11:40;;;;;;;6.60;4.20;;;;;;;23.44;44.30;100124.16;5073180;28;20473;-77
2023/10/07 05:14:07;;;;;;;5.53;3.38;;;;;;;23.45;44.39;100115.22;5068219;28;20052;-77
2023/10/07 05:16:34;;;;;;;6.40;3.55;;;;;;;23.43;44.31;100122.44;5057611;28;20043;-77
2023/10/07 05:19:00;;;;;;;6.72;3.88;;;;;;;23.40;44.41;100122.63;5094261;28;20070;-77
2023/10/07 05:21:27;;;;;;;6.30;3.50;;;;;;;23.39;44.32;100119.09;5095252;28;20040;-77
2023/10/07 05:23:52;;;;;;;6.57;3.88;;;;;;;23.39;44.22;100121.75;5095650;28;20032;-78
2023/10/07 05:26:18;;;;;;;5.22;3.20;;;;;;;23.41;44.31;100124.34;5095529;28;20026;-78
2023/10/07 05:28:46;;;;;;;5.72;3.53;;;;;;;23.40;44.17;100130.63;5095598;28;20480;-78
2023/10/07 05:31:14;;;;;;;6.30;4.05;;;;;;;23.38;44.28;100119.22;5095652;28;20547;-78
2023/10/07 05:33:42;;;;;;;5.80;3.58;;;;;;;23.39;44.15;100124.44;5095755;28;20047;-78
2023/10/07 05:36:13;;;;;;;5.60;3.40;;;;;;;23.41;44.17;100132.31;5095044;28;20028;-78
2023/10/07 05:38:44;;;;;;;5.95;3.75;;;;;;;23.38;44.14;100129.88;5097640;28;20016;-77
2023/10/07 05:41:14;;;;;;;5.88;3.35;;;;;;;23.38;44.32;100129.88;5096078;28;20499;-77
2023/10/07 05:43:43;;;;;;;5.63;3.38;;;;;;;23.38;44.21;100127.22;5094619;28;20035;-78
2023/10/07 05:46:10;;;;;;;6.35;3.97;;;;;;;23.36;44.03;100132.63;5094776;28;20051;-77
2023/10/07 05:48:38;;;;;;;5.28;3.20;;;;;;;23.36;43.96;100124.63;5095060;28;20074;-78
2023/10/07 05:51:08;;;;;;;6.65;3.60;;;;;;;23.36;44.05;100126.41;5094188;28;20454;-77
2023/10/07 05:53:37;;;;;;;7.00;3.72;;;;;;;23.32;44.13;100131.94;5094981;28;20054;-77
2023/10/07 05:56:07;;;;;;;5.28;3.33;;;;;;;23.32;44.27;100137.28;5095242;28;20035;-78
2023/10/07 05:58:36;;;;;;;6.75;3.60;;;;;;;23.36;44.29;100134.41;5094779;28;20028;-77
2023/10/07 06:01:03;;;;;;;6.68;3.58;;;;;;;23.31;44.08;100143.56;5095330;28;20020;-77
2023/10/07 06:03:29;;;;;;;6.85;3.85;;;;;;;23.31;44.18;100138.22;5094566;28;20043;-77
2023/10/07 06:05:57;;;;;;;5.45;3.13;;;;;;;23.33;44.12;100140.78;5095017;28;20613;-78
2023/10/07 06:08:26;;;;;;;5.28;3.42;;;;;;;23.33;43.98;100141.66;5094709;28;20044;-78
2023/10/07 06:10:59;;;;;;;5.90;3.53;;;;;;;23.32;44.19;100149.72;5093265;28;20119;-78
2023/10/07 06:13:28;;;;;;;6.38;3.50;;;;;;;23.30;44.12;100144.44;5094852;28;20016;-77
2023/10/07 06:15:58;;;;;;;6.15;3.63;;;;;;;23.29;44.06;100153.38;5094712;28;20441;-77
2023/10/07 06:18:25;;;;;;;6.45;3.80;;;;;;;23.27;44.36;100154.44;5094117;28;20472;-77
2023/10/07 06:20:51;;;;;;;6.13;3.50;;;;;;;23.25;44.21;100157.16;5094474;28;20012;-78
2023/10/07 06:23:24;;;;;;;5.93;3.70;;;;;;;23.30;44.23;100155.09;5094329;28;20052;-77
2023/10/07 06:25:51;;;;;;;6.40;4.03;;;;;;;23.29;44.13;100156.06;5094580;28;20028;-78
2023/10/07 06:28:30;;;;;;;5.93;3.58;;;;;;;23.25;44.29;100162.50;5094778;28;20106;-77
2023/10/07 06:31:13;;;;;;;5.32;3.42;;;;;;;23.26;44.28;100164.25;5093256;28;20020;-77
2023/10/07 06:33:43;;;;;;;6.95;3.33;;;;;;;23.27;44.07;100163.28;5093821;28;20077;-78
2023/10/07 06:36:12;;;;;;;5.82;3.40;;;;;;;23.24;44.22;100171.44;5093933;28;20038;-78
2023/10/07 06:38:39;;;;;;;6.03;3.47;;;;;;;23.21;44.39;100171.63;5094598;28;20020;-77
2023/10/07 06:41:09;;;;;;;7.30;3.67;;;;;;;23.19;44.45;100184.16;5094038;28;20484;-78
2023/10/07 06:43:42;;;;;;;5.75;3.92;;;;;;;23.20;44.32;100183.25;5094464;28;20032;-77
2023/10/07 06:46:11;;;;;;;4.97;3.40;;;;;;;23.20;44.36;100185.91;5094633;28;20030;-77
2023/10/07 06:48:40;;;;;;;7.22;3.80;;;;;;;23.20;44.26;100185.91;5093605;28;20024;-77
2023/10/07 06:51:06;;;;;;;6.45;3.63;;;;;;;23.24;44.08;100192.75;5093795;28;20102;-77
2023/10/07 06:53:38;;;;;;;5.93;3.63;;;;;;;23.27;44.28;100197.91;5093916;28;20028;-76
2023/10/07 06:56:04;;;;;;;6.28;3.65;;;;;;;23.23;44.21;100196.34;5094046;28;20046;-77
2023/10/07 06:58:29;;;;;;;6.93;3.53;;;;;;;23.21;44.26;100203.59;5093388;28;20032;-78
2023/10/07 07:01:05;;;;;;;6.53;3.92;;;;;;;23.19;44.27;100200.13;5094202;28;20102;-77
2023/10/07 07:03:32;;;;;;;;;;;;;;;23.25;44.30;100204.25;5093782;28;20135;-77
2023/10/07 07:05:57;;;;;;;6.22;3.40;;;;;;;23.20;44.38;100207.19;5094315;28;19928;-77
2023/10/07 07:08:22;;;;;;;5.72;3.40;;;;;;;23.21;44.18;100211.56;5093992;28;20028;-78
2023/10/07 07:10:55;;;;;;;6.32;4.00;;;;;;;23.18;44.44;100203.75;5093909;28;20023;-77
2023/10/07 07:13:26;;;;;;;6.38;3.90;;;;;;;23.19;44.25;100210.78;5094022;28;20024;-77
2023/10/07 07:16:08;;;;;;;6.22;4.10;;;;;;;23.22;44.03;100215.06;5093525;28;20032;-76
2023/10/07 07:18:33;;;;;;;7.13;3.70;;;;;;;23.24;44.14;100214.03;5093547;28;20035;-77
2023/10/07 07:21:13;;;;;;;6.57;3.95;;;;;;;23.23;44.15;100222.97;5092258;28;20028;-78
2023/10/07 07:23:43;;;;;;;7.85;4.30;;;;;;;23.25;43.98;100220.25;5093652;28;20020;-77
2023/10/07 07:26:12;;;;;;;7.60;4.03;;;;;;;23.25;44.05;100221.06;5093457;28;20058;-77
2023/10/07 07:28:42;;;;;;;5.90;3.72;;;;;;;23.26;44.10;100228.13;5093005;28;20020;-77
2023/10/07 07:31:18;;;;;;;6.68;3.83;;;;;;;23.26;44.16;100225.47;5093298;28;20357;-78
2023/10/07 07:33:48;;;;;;;5.93;3.25;;;;;;;23.27;44.12;100226.31;5093803;28;20111;-77
2023/10/07 07:36:37;;;;;;;6.30;4.03;;;;;;;23.25;44.30;100221.06;5093213;28;20049;-77
2023/10/07 07:39:09;;;;;;;6.43;3.80;;;;;;;23.31;44.05;100231.44;5080304;28;20069;-76
2023/10/07 07:41:37;;;;;;;5.78;3.78;;;;;;;23.28;43.93;100231.56;5092731;28;20425;-77
2023/10/07 07:44:10;;;;;;;6.68;4.10;;;;;;;23.26;44.00;100233.47;5092946;28;20134;-76
2023/10/07 07:46:54;;;;;;;7.47;3.70;;;;;;;23.28;44.15;100242.22;5092789;28;20054;-77
2023/10/07 07:49:20;;;;;;;6.10;3.78;;;;;;;23.26;44.04;100244.13;5093371;28;20035;-78
2023/10/07 07:51:51;;;;;;;6.10;3.47;;;;;;;23.28;44.14;100247.53;5091868;28;20036;-77
2023/10/07 07:54:17;;;;;;;6.30;3.72;;;;;;;23.31;44.05;100242.06;5093417;28;20027;-77
2023/10/07 07:56:45;;;;;;;6.13;3.47;;;;;;;23.32;43.96;100249.13;5108961;28;20395;-78
2023/10/07 07:59:18;;;;;;;5.85;3.63;;;;;;;23.31;43.96;100249.19;5102445;28;20024;-77
2023/10/07 08:01:53;;;;;;;5.22;3.50;;;;;;;23.33;44.12;100250.81;5092566;28;20020;-77
2023/10/07 08:04:37;;;;;;;6.53;3.33;;;;;;;23.31;44.10;100252.72;5092704;28;20051;-77
2023/10/07 08:07:06;;;;;;;6.95;3.80;;;;;;;23.32;44.16;100259.78;5091437;28;20032;-77
2023/10/07 08:09:36;;;;;;;8.10;3.92;;;;;;;23.31;44.17;100255.41;5093031;28;20525;-77
2023/10/07 08:12:09;;;;;;;6.75;3.83;;;;;;;23.32;44.11;100262.44;5093154;28;20111;-77
2023/10/07 08:14:37;;;;;;;5.68;3.40;;;;;;;23.31;43.98;100263.38;5092825;28;20016;-77
2023/10/07 08:17:04;;;;;;;6.80;3.80;;;;;;;23.31;44.14;100258.06;5092690;28;20403;-77
2023/10/07 08:19:32;;;;;;;5.38;3.80;;;;;;;23.31;44.29;100266.03;5092473;28;20077;-77
2023/10/07 08:22:02;;;;;;;5.53;3.53;;;;;;;23.31;44.14;100268.72;5092410;28;20026;-78
2023/10/07 08:24:31;;;;;;;5.40;3.55;;;;;;;23.31;44.14;100270.50;5089278;28;20024;-78
2023/10/07 08:27:03;;;;;;;7.32;3.75;;;;;;;23.32;44.13;100269.53;5092506;28;20473;-77
2023/10/07 08:29:32;;;;;;;6.72;3.72;;;;;;;23.31;44.29;100266.03;5092695;28;20469;-77
2023/10/07 08:32:14;;;;;;;6.65;4.05;;;;;;;23.31;44.19;100271.38;5092734;28;20032;-78
2023/10/07 08:34:39;;;;;;;6.35;3.72;;;;;;;23.31;44.40;100274.03;5092228;28;20099;-78
2023/10/07 08:37:08;;;;;;;5.53;3.50;;;;;;;23.30;44.25;100272.25;5092373;28;20100;-77
2023/10/07 08:39:44;;;;;;;6.07;3.60;;;;;;;23.29;44.32;100273.22;5093028;28;20074;-77
2023/10/07 08:42:13;;;;;;;;;;;;;;;23.31;44.55;100268.72;5097406;28;20032;-78
2023/10/07 08:44:38;;;;;;;6.35;3.67;;;;;;;23.30;44.42;100272.25;5096189;28;20444;-77
2023/10/07 08:47:10;;;;;;;6.07;3.58;;;;;;;23.30;44.39;100271.41;5096350;28;20032;-77
2023/10/07 08:49:38;;;;;;;6.20;3.80;;;;;;;23.29;44.48;100265.22;5096612;28;20023;-77
2023/10/07 08:52:08;;;;;;;6.35;3.88;;;;;;;23.30;44.52;100276.75;5096229;28;20158;-78
2023/10/07 08:54:37;;;;;;;6.30;3.92;;;;;;;23.29;44.48;100273.22;5096361;28;20039;-78
2023/10/07 08:57:14;;;;;;;6.00;3.95;;;;;;;23.30;44.45;100277.59;5094975;28;20020;-77
2023/10/07 08:59:42;;;;;;;7.28;3.92;;;;;;;23.31;44.56;100276.69;5096135;28;20031;-77
2023/10/07 09:02:12;;;;;;;5.45;3.58;;;;;;;23.32;44.58;100283.72;5096415;28;20031;-78
2023/10/07 09:04:40;;;;;;;5.50;3.13;;;;;;;23.32;44.55;100281.06;5096151;28;20044;-78
2023/10/07 09:07:08;;;;;;;5.80;3.72;;;;;;;23.31;44.57;100278.50;5096150;28;20104;-78
2023/10/07 09:09:38;;;;;;;6.82;4.10;;;;;;;23.32;44.57;100275.75;5095796;28;20525;-77
2023/10/07 09:12:18;;;;;;;7.60;4.15;;;;;;;23.36;44.43;100283.53;5095617;28;20480;-77
2023/10/07 09:14:57;;;;;;;6.95;3.53;;;;;;;23.36;44.63;100280.88;5096063;28;20020;-77
2023/10/07 09:17:23;;;;;;;5.70;3.40;;;;;;;23.36;44.60;100278.22;5096079;28;20399;-77
2023/10/07 09:19:52;;;;;;;6.25;4.13;;;;;;;23.37;44.53;100271.94;5095925;28;20028;-77
2023/10/07 09:22:24;;;;;;;5.43;3.88;;;;;;;23.36;44.68;100278.22;5095854;28;20035;-77
2023/10/07 09:24:54;;;;;;;6.63;3.53;;;;;;;23.39;44.36;100275.38;5095417;28;20457;-77
2023/10/07 09:27:38;;;;;;;6.07;3.30;;;;;;;23.38;44.55;100279.00;5095432;28;20038;-78
2023/10/07 09:30:35;;;;;;;6.82;3.75;;;;;;;23.39;44.45;100275.38;5095735;28;20036;-77
2023/10/07 09:32:59;;;;;;;6.63;3.95;;;;;;;23.40;44.64;100285.97;5095464;28;20031;-77
2023/10/07 09:35:25;;;;;;;6.38;4.07;;;;;;;23.41;44.57;100278.81;5096278;28;20070;-78
2023/10/07 09:37:53;;;;;;;6.30;3.75;;;;;;;23.46;44.37;100276.72;5095694;28;20050;-77
2023/10/07 09:43:27;;;;;;;6.45;3.90;;;;;;;23.48;44.52;100274.81;5095417;28;20031;-77
2023/10/07 09:45:53;;;;;;;8.35;4.10;;;;;;;23.50;44.60;100272.94;5096012;28;20600;-78
2023/10/07 09:48:31;;;;;;;7.18;3.88;;;;;;;23.51;44.34;100277.31;5095961;28;20024;-78
2023/10/07 09:50:58;;;;;;;6.90;4.20;;;;;;;23.51;44.46;100272.00;5095182;28;20496;-78
2023/10/07 09:53:41;;;;;;;7.60;3.80;;;;;;;23.52;44.44;100271.03;5098110;28;20039;-76
2023/10/07 09:56:29;;;;;;;6.97;3.75;;;;;;;23.54;44.40;100268.28;5094667;28;20028;-78
2023/10/07 09:59:00;;;;;;;6.38;4.07;;;;;;;23.52;44.44;100265.72;5095237;28;20032;-78
2023/10/07 10:01:38;;;;;;;6.43;3.80;;;;;;;23.55;44.48;100260.22;5094789;28;20473;-78
2023/10/07 10:04:28;;;;;;;6.35;3.92;;;;;;;23.57;44.35;100258.31;5094973;28;20128;-77
2023/10/07 10:07:18;;;;;;;9.30;4.82;;;;;;;23.57;44.51;100258.31;5095140;28;20017;-78
2023/10/07 10:12:48;;;;;;;7.20;3.85;;;;;;;23.58;44.47;100249.38;5094632;28;20403;-78
2023/10/07 10:17:56;;;;;;;6.78;3.67;;;;;;;23.59;44.42;100251.06;5074493;28;20082;-77
2023/10/07 10:20:27;;;;;;;6.68;3.83;;;;;;;23.62;44.35;100249.19;5094333;28;20024;-78
2023/10/07 10:22:57;;;;;;;7.68;4.03;;;;;;;23.62;44.38;100238.53;5094412;28;20031;-78
2023/10/07 10:25:37;;;;;;;6.28;3.75;;;;;;;23.64;44.38;100239.28;5094318;28;20476;-77
2023/10/07 10:28:03;;;;;;;6.47;3.97;;;;;;;23.64;44.39;100229.50;5094376;28;20028;-77
2023/10/07 10:30:29;;;;;;;7.25;4.07;;;;;;;23.66;44.60;100235.59;5095192;28;20024;-78
2023/10/07 10:33:08;;;;;;;6.65;4.10;;;;;;;23.66;44.51;100235.59;5095370;28;20054;-78
2023/10/07 10:35:37;;;;;;;6.82;4.00;;;;;;;23.67;44.47;100231.13;5095368;28;20028;-77
2023/10/07 10:38:09;;;;;;;6.72;3.90;;;;;;;23.68;44.50;100228.34;5094601;28;20108;-78
2023/10/07 10:40:35;;;;;;;6.20;3.90;;;;;;;23.69;44.48;100231.88;5073583;28;20064;-78
2023/10/07 10:43:01;;;;;;;7.13;3.78;;;;;;;23.70;44.61;100225.59;5076165;28;20025;-78
2023/10/07 10:45:29;;;;;;;6.95;3.90;;;;;;;23.73;44.35;100233.44;5094386;28;20442;-78
2023/10/07 10:47:57;;;;;;;6.90;3.70;;;;;;;23.74;44.30;100229.81;5094216;28;20103;-77
2023/10/07 10:50:24;;;;;;;7.35;4.05;;;;;;;23.74;44.39;100229.81;5094293;28;20028;-77
2023/10/07 10:52:54;;;;;;;5.63;3.72;;;;;;;23.76;44.54;100230.56;5093859;28;20028;-77
2023/10/07 10:55:22;;;;;;;6.18;3.95;;;;;;;23.77;44.18;100226.94;5093750;28;20024;-78
2023/10/07 10:57:47;;;;;;;6.15;3.85;;;;;;;23.78;44.25;100223.31;5093790;28;20024;-78
2023/10/07 11:00:19;;;;;;;8.50;4.13;;;;;;;23.79;44.33;100218.84;5093456;28;20361;-77
2023/10/07 11:02:46;;;;;;;6.32;3.65;;;;;;;23.78;44.46;100212.66;5093704;28;20043;-78
2023/10/07 11:05:12;;;;;;;6.57;3.97;;;;;;;23.80;44.41;100205.44;5093270;28;20048;-76
2023/10/07 11:07:39;;;;;;;6.63;3.55;;;;;;;23.81;44.46;100207.16;5093560;28;20099;-78
2023/10/07 11:10:08;;;;;;;7.45;3.95;;;;;;;23.83;44.49;100207.06;5093274;28;20116;-78
2023/10/07 11:12:33;;;;;;;6.47;3.55;;;;;;;23.83;44.28;100205.25;5093451;28;20024;-77
2023/10/07 11:15:24;;;;;;;6.50;3.42;;;;;;;23.83;44.42;100205.25;5093336;28;20046;-78
2023/10/07 11:17:58;;;;;;;5.60;3.83;;;;;;;23.85;44.50;100203.34;5093373;28;20028;-78
2023/10/07 11:20:24;;;;;;;6.65;3.90;;;;;;;23.88;44.53;100202.31;5093273;28;20061;-77
2023/10/07 11:22:53;;;;;;;6.35;4.00;;;;;;;23.86;44.45;100189.06;5093009;28;20164;-77
2023/10/07 11:25:22;;;;;;;6.68;3.92;;;;;;;23.89;44.40;100197.81;5091564;28;20071;-77
2023/10/07 11:27:49;;;;;;;7.00;3.92;;;;;;;23.90;44.51;100194.19;5092876;28;20028;-77
2023/10/07 11:30:15;;;;;;;5.72;3.42;;;;;;;23.92;44.56;100190.50;5093001;28;20032;-77
2023/10/07 11:32:42;;;;;;;6.60;3.92;;;;;;;23.93;44.39;100183.38;5093087;28;20020;-77
2023/10/07 11:35:19;;;;;;;6.35;3.90;;;;;;;23.95;44.29;100176.13;5092719;28;20119;-77
2023/10/07 11:37:58;;;;;;;6.30;4.00;;;;;;;23.96;44.47;100180.50;5092532;28;20016;-78
2023/10/07 11:40:25;;;;;;;6.35;3.70;;;;;;;23.97;44.53;100176.91;5092368;28;20040;-79
2023/10/07 11:42:52;;;;;;;6.53;4.20;;;;;;;23.97;44.41;100164.41;5092852;28;20056;-77
2023/10/07 11:45:17;;;;;;;6.32;3.90;;;;;;;24.01;44.28;100167.72;5072373;28;20078;-78
2023/10/07 11:47:44;;;;;;;5.63;3.30;;;;;;;24.02;44.21;100169.44;5086266;28;20020;-78
2023/10/07 11:50:10;;;;;;;6.80;4.15;;;;;;;24.04;44.37;100154.22;5111852;28;20019;-77
2023/10/07 11:52:37;;;;;;;6.03;3.63;;;;;;;24.05;44.48;100161.25;5111518;28;20062;-77
2023/10/07 11:55:07;;;;;;;6.43;3.55;;;;;;;24.06;44.15;100154.97;5094508;28;20032;-78
2023/10/07 11:57:34;;;;;;;6.95;3.72;;;;;;;24.07;44.19;100154.06;5092815;28;20103;-79
2023/10/07 11:59:59;;;;;;;6.15;3.75;;;;;;;24.08;44.34;100144.25;5092551;28;20157;-77
2023/10/07 12:02:25;;;;;;;5.30;3.20;;;;;;;24.09;44.21;100141.50;5092273;28;20058;-79
2023/10/07 12:04:51;;;;;;;6.55;3.65;;;;;;;24.10;44.16;100147.66;5092024;28;20165;-78
2023/10/07 12:07:17;;;;;;;6.28;3.50;;;;;;;24.12;44.35;100135.97;5092153;28;20486;-76
2023/10/07 12:09:46;;;;;;;5.38;3.20;;;;;;;24.12;44.19;100135.97;5092360;28;20154;-78
2023/10/07 12:12:12;;;;;;;6.25;3.58;;;;;;;24.15;44.21;100131.41;5092272;28;20058;-78
2023/10/07 12:14:38;;;;;;;6.35;3.58;;;;;;;24.15;44.25;100123.41;5091799;28;20526;-77
2023/10/07 12:17:04;;;;;;;5.72;3.50;;;;;;;24.17;44.23;100121.47;5092060;28;20028;-78
2023/10/07 12:19:31;;;;;;;6.50;3.80;;;;;;;24.18;44.35;100117.84;5092336;28;20045;-78
2023/10/07 12:21:57;;;;;;;6.20;3.78;;;;;;;24.19;44.35;100114.22;5091995;28;20110;-77
2023/10/07 12:24:22;;;;;;;6.55;3.55;;;;;;;24.20;44.16;100111.47;5091757;28;20045;-77
2023/10/07 12:26:51;;;;;;;5.35;3.00;;;;;;;24.22;44.41;100106.03;5092237;28;20035;-77